createdAt,value
2024-04-30T00:00:48.321Z,101253.06
2024-04-30T00:05:51.568Z,101258.72
2024-04-30T00:10:53.626Z,101250.25
2024-04-30T00:15:55.803Z,101259.56
2024-04-30T00:20:58.761Z,101253.41
2024-04-30T00:26:00.699Z,101241.22
2024-04-30T00:31:04.317Z,101252.88
2024-04-30T00:36:06.292Z,101249.16
2024-04-30T00:41:08.270Z,101256.19
2024-04-30T00:46:10.848Z,101248.63
2024-04-30T00:51:13.869Z,101262.16
2024-04-30T00:56:15.775Z,101248.31
2024-04-30T01:01:18.295Z,101243.66
2024-04-30T01:06:20.487Z,101247.03
2024-04-30T01:11:22.472Z,101247.66
2024-04-30T01:16:24.442Z,101241.41
2024-04-30T01:21:26.391Z,101242.53
2024-04-30T01:26:28.333Z,101241.25
2024-04-30T01:31:30.444Z,101227.91
2024-04-30T01:36:32.421Z,101228.41
2024-04-30T01:41:34.382Z,101225.63
2024-04-30T01:46:36.328Z,101216.06
2024-04-30T01:51:38.267Z,101208.78
2024-04-30T01:56:40.212Z,101209.28
2024-04-30T02:01:42.190Z,101209.47
2024-04-30T02:06:44.435Z,101205.91
2024-04-30T02:11:46.471Z,101204.84
2024-04-30T02:16:48.593Z,101205.53
2024-04-30T02:21:50.590Z,101210.84
2024-04-30T02:26:52.628Z,101204.53
2024-04-30T02:32:30.157Z,101196.38
2024-04-30T02:37:32.225Z,101192.75
2024-04-30T02:42:34.226Z,101189.34
2024-04-30T02:47:36.217Z,101185.72
2024-04-30T02:52:38.266Z,101178.63
2024-04-30T02:57:40.240Z,101173.41
2024-04-30T03:02:42.174Z,101171.59
2024-04-30T03:07:44.116Z,101179.59
2024-04-30T03:12:49.477Z,101167.91
2024-04-30T03:17:51.596Z,101153.94
2024-04-30T03:22:53.740Z,101163.03
2024-04-30T03:27:56.310Z,101165.38
2024-04-30T03:32:59.188Z,101165.63
2024-04-30T03:38:01.154Z,101158.72
2024-04-30T03:43:03.103Z,101169.16
2024-04-30T03:48:05.091Z,101163.13
2024-04-30T03:53:07.088Z,101159.16
2024-04-30T03:58:09.043Z,101155.50
2024-04-30T04:03:11.193Z,101155.56
2024-04-30T04:08:13.203Z,101150.00
2024-04-30T04:13:33.889Z,101161.06
2024-04-30T04:18:35.922Z,101154.22
2024-04-30T04:23:37.904Z,101152.06
2024-04-30T04:28:39.958Z,101152.94
2024-04-30T04:33:41.926Z,101157.72
2024-04-30T04:38:43.896Z,101156.09
2024-04-30T04:43:45.903Z,101157.91
2024-04-30T04:48:47.825Z,101162.56
2024-04-30T04:53:49.754Z,101152.13
2024-04-30T04:58:51.674Z,101153.38
2024-04-30T05:03:53.728Z,101140.56
2024-04-30T05:08:55.751Z,101145.66
2024-04-30T05:13:57.680Z,101142.19
2024-04-30T05:19:02.667Z,101148.19
2024-04-30T05:24:04.728Z,101142.63
2024-04-30T05:29:06.651Z,101137.19
2024-04-30T05:34:08.648Z,101126.47
2024-04-30T05:39:10.589Z,101131.41
2024-04-30T05:44:12.747Z,101116.97
2024-04-30T05:49:15.981Z,101096.31
2024-04-30T05:54:17.977Z,101096.72
2024-04-30T05:59:19.951Z,101085.69
2024-04-30T06:04:22.027Z,101080.03
2024-04-30T06:09:24.003Z,101070.16
2024-04-30T06:14:25.955Z,101066.72
2024-04-30T06:19:27.897Z,101061.94
2024-04-30T06:24:29.945Z,101049.28
2024-04-30T06:29:31.869Z,101039.03
2024-04-30T06:34:33.855Z,101032.06
2024-04-30T06:39:35.829Z,101037.59
2024-04-30T06:44:37.751Z,101030.13
2024-04-30T06:49:39.701Z,101023.16
2024-04-30T06:54:41.639Z,101009.78
2024-04-30T06:59:43.564Z,101013.59
2024-04-30T07:04:45.753Z,101012.97
2024-04-30T07:09:47.743Z,101016.38
2024-04-30T07:14:49.674Z,101014.00
2024-04-30T07:19:52.057Z,101001.22
2024-04-30T07:24:54.285Z,100995.94
2024-04-30T07:29:56.258Z,101004.44
2024-04-30T07:34:58.336Z,101007.25
2024-04-30T07:40:00.512Z,101007.78
2024-04-30T07:45:02.591Z,100994.22
2024-04-30T07:50:04.602Z,100990.63
2024-04-30T07:55:06.753Z,100995.31
2024-04-30T08:00:11.471Z,100997.25
2024-04-30T08:05:13.408Z,100994.06
2024-04-30T08:10:15.431Z,100988.84
2024-04-30T08:15:17.518Z,100982.06
2024-04-30T08:20:19.490Z,100970.78
2024-04-30T08:25:21.464Z,100977.81
2024-04-30T08:30:23.546Z,100979.56
2024-04-30T08:35:25.850Z,100971.50
2024-04-30T08:40:27.809Z,100955.63
2024-04-30T08:45:30.496Z,100958.69
2024-04-30T08:50:32.645Z,100948.91
2024-04-30T08:55:35.935Z,100942.41
2024-04-30T09:00:37.896Z,100930.31
2024-04-30T09:05:40.964Z,100931.19
2024-04-30T09:10:42.998Z,100915.22
2024-04-30T09:15:44.958Z,100925.69
2024-04-30T09:20:47.469Z,100918.56
2024-04-30T09:25:49.445Z,100924.50
2024-04-30T09:31:01.401Z,100916.44
2024-04-30T09:36:08.623Z,100905.97
2024-04-30T09:41:14.093Z,100896.25
2024-04-30T09:46:16.327Z,100900.25
2024-04-30T09:51:19.469Z,100902.91
2024-04-30T09:56:22.229Z,100898.16
2024-04-30T10:01:27.827Z,100896.47
2024-04-30T10:06:30.956Z,100875.75
2024-04-30T10:11:32.883Z,100878.22
2024-04-30T10:16:34.904Z,100866.63
2024-04-30T10:21:37.241Z,100851.31
2024-04-30T10:26:46.478Z,100852.06
2024-04-30T10:31:49.602Z,100834.72
2024-04-30T10:36:52.575Z,100836.09
2024-04-30T10:41:55.069Z,100834.47
2024-04-30T10:46:57.691Z,100817.44
2024-04-30T10:51:59.887Z,100816.31
2024-04-30T10:57:01.811Z,100804.75
2024-04-30T11:02:03.730Z,100799.09
2024-04-30T11:07:05.759Z,100794.47
2024-04-30T11:12:07.709Z,100769.34
2024-04-30T11:17:11.787Z,100768.22
2024-04-30T11:22:14.104Z,100758.78
2024-04-30T11:27:16.042Z,100758.09
2024-04-30T11:32:17.992Z,100750.16
2024-04-30T11:37:20.616Z,100736.59
2024-04-30T11:42:27.473Z,100724.00
2024-04-30T11:47:36.044Z,100717.38
2024-04-30T11:52:40.623Z,100705.66
2024-04-30T11:57:42.733Z,100696.50
2024-04-30T12:02:44.882Z,100692.88
2024-04-30T12:07:47.109Z,100694.25
2024-04-30T12:12:49.797Z,100680.84
2024-04-30T12:17:51.847Z,100684.97
2024-04-30T12:22:54.035Z,100672.28
2024-04-30T12:27:55.950Z,100675.50
2024-04-30T12:32:57.904Z,100660.91
2024-04-30T12:38:00.633Z,100653.63
2024-04-30T12:43:02.561Z,100653.63
2024-04-30T12:48:04.722Z,100644.16
2024-04-30T12:53:06.737Z,100639.72
2024-04-30T12:58:09.023Z,100624.19
2024-04-30T13:03:11.141Z,100629.41
2024-04-30T13:08:13.148Z,100620.66
2024-04-30T13:13:15.246Z,100609.19
2024-04-30T13:18:17.195Z,100596.22
2024-04-30T13:23:19.130Z,100594.47
2024-04-30T13:28:21.128Z,100577.56
2024-04-30T13:33:24.266Z,100577.88
2024-04-30T13:38:26.638Z,100577.56
2024-04-30T13:43:28.698Z,100557.19
2024-04-30T13:48:30.798Z,100563.00
2024-04-30T13:53:36.372Z,100542.63
2024-04-30T13:58:38.323Z,100530.91
2024-04-30T14:03:40.334Z,100515.91
2024-04-30T14:08:42.764Z,100519.38
2024-04-30T14:13:44.817Z,100510.84
2024-04-30T14:18:46.846Z,100500.53
2024-04-30T14:23:48.815Z,100491.06
2024-04-30T14:28:50.789Z,100480.75
2024-04-30T14:33:52.754Z,100483.81
2024-04-30T14:38:54.732Z,100485.84
2024-04-30T14:43:56.675Z,100476.34
2024-04-30T14:48:58.683Z,100473.28
2024-04-30T14:54:00.609Z,100459.53
2024-04-30T14:59:02.650Z,100456.84
2024-04-30T15:04:04.738Z,100450.06
2024-04-30T15:09:12.486Z,100450.22
2024-04-30T15:14:14.677Z,100451.41
2024-04-30T15:19:16.614Z,100446.28
2024-04-30T15:24:18.526Z,100448.06
2024-04-30T15:29:20.445Z,100444.09
2024-04-30T15:34:22.397Z,100445.72
2024-04-30T15:39:25.664Z,100431.72
2024-04-30T15:44:27.573Z,100428.47
2024-04-30T15:49:29.604Z,100436.34
2024-04-30T15:54:31.637Z,100427.56
2024-04-30T15:59:35.364Z,100427.63
2024-04-30T16:04:37.416Z,100429.63
2024-04-30T16:09:39.494Z,100424.38
2024-04-30T16:14:41.436Z,100424.03
2024-04-30T16:19:43.679Z,100414.16
2024-04-30T16:24:45.884Z,100405.16
2024-04-30T16:29:48.332Z,100403.03
2024-04-30T16:34:50.329Z,100403.44
2024-04-30T16:39:52.311Z,100398.69
2024-04-30T16:44:58.407Z,100397.19
2024-04-30T16:50:01.201Z,100388.38
2024-04-30T16:55:03.371Z,100384.34
2024-04-30T17:00:11.547Z,100375.53
2024-04-30T17:05:15.135Z,100373.19
2024-04-30T17:10:17.187Z,100372.44
2024-04-30T17:15:19.245Z,100366.09
2024-04-30T17:20:21.198Z,100362.50
2024-04-30T17:25:23.106Z,100360.75
2024-04-30T17:30:25.055Z,100368.97
2024-04-30T17:35:27.036Z,100360.19
2024-04-30T17:40:28.981Z,100355.28
2024-04-30T17:45:30.931Z,100357.47
2024-04-30T17:50:32.864Z,100360.28
2024-04-30T17:55:36.036Z,100369.84
2024-04-30T18:00:38.035Z,100377.38
2024-04-30T18:05:40.118Z,100379.47
2024-04-30T18:10:49.417Z,100375.59
2024-04-30T18:15:55.902Z,100382.22
2024-04-30T18:20:57.878Z,100378.84
2024-04-30T18:25:59.803Z,100377.94
2024-04-30T18:31:01.782Z,100375.63
2024-04-30T18:36:03.762Z,100375.41
2024-04-30T18:41:16.763Z,100376.75
2024-04-30T18:46:22.638Z,100372.22
2024-04-30T18:51:26.327Z,100376.69
2024-04-30T18:56:28.294Z,100381.69
2024-04-30T19:01:30.361Z,100380.03
2024-04-30T19:06:32.487Z,100391.06
2024-04-30T19:11:34.577Z,100392.41
2024-04-30T19:16:42.438Z,100394.88
2024-04-30T19:21:45.505Z,100400.03
2024-04-30T19:26:47.832Z,100394.19
2024-04-30T19:31:49.770Z,100393.97
2024-04-30T19:36:51.754Z,100391.78
2024-04-30T19:41:53.697Z,100397.22
2024-04-30T19:46:55.670Z,100393.75
2024-04-30T19:51:57.686Z,100405.59
2024-04-30T19:56:59.664Z,100397.16
2024-04-30T20:02:01.598Z,100390.09
2024-04-30T20:07:04.563Z,100402.91
2024-04-30T20:12:06.544Z,100389.31
2024-04-30T20:17:08.463Z,100393.34
2024-04-30T20:22:10.429Z,100391.44
2024-04-30T20:27:12.387Z,100390.13
2024-04-30T20:32:14.388Z,100383.59
2024-04-30T20:37:16.343Z,100382.16
2024-04-30T20:42:20.693Z,100382.53
2024-04-30T20:47:22.760Z,100376.72
2024-04-30T20:52:24.816Z,100381.25
2024-04-30T20:57:26.804Z,100377.66
2024-04-30T21:02:28.940Z,100384.59
2024-04-30T21:07:30.911Z,100362.91
2024-04-30T21:12:33.033Z,100375.50
2024-04-30T21:17:35.350Z,100374.91
2024-04-30T21:22:37.397Z,100377.91
2024-04-30T21:27:39.470Z,100372.41
2024-04-30T21:32:41.496Z,100367.34
2024-04-30T21:37:44.008Z,100360.72
2024-04-30T21:42:45.986Z,100367.69
2024-04-30T21:47:48.024Z,100365.63
2024-04-30T21:52:50.007Z,100359.66
2024-04-30T21:57:51.984Z,100355.06
2024-04-30T22:03:00.154Z,100344.66
2024-04-30T22:08:04.874Z,100344.44
2024-04-30T22:13:06.831Z,100338.78
2024-04-30T22:18:08.885Z,100343.53
2024-04-30T22:23:10.859Z,100332.44
2024-04-30T22:28:12.811Z,100334.59
2024-04-30T22:33:14.953Z,100334.97
2024-04-30T22:38:16.919Z,100331.34
2024-04-30T22:43:18.847Z,100327.75
2024-04-30T22:48:21.057Z,100322.16
2024-04-30T22:53:23.112Z,100326.13
2024-04-30T22:58:25.579Z,100313.66
2024-04-30T23:03:27.988Z,100310.09
2024-04-30T23:08:29.954Z,100310.97
2024-04-30T23:13:31.883Z,100309.81
2024-04-30T23:18:34.099Z,100301.44
2024-04-30T23:23:36.121Z,100308.34
2024-04-30T23:28:38.489Z,100304.09
2024-04-30T23:33:40.508Z,100301.44
2024-04-30T23:38:42.428Z,100292.41
2024-04-30T23:43:44.407Z,100294.72
2024-04-30T23:48:46.371Z,100283.50
2024-04-30T23:53:48.483Z,100278.75
2024-04-30T23:58:50.417Z,100278.97
